Time;durP1;ratioP1;P1;durP2;ratioP2;P2;SDS_P1;SDS_P2;PMS_P1;PMS_P2;Temp;Humidity;BMP_temperature;BMP_pressure;BME280_temperature;BME280_humidity;BME280_pressure;Samples;Min_cycle;Max_cycle;Signal;HPM_P1;HPM_P2
2021/05/01 00:00:24;;;;;;;99.77;61.90;;;;;;;;;;2097784;28;20175;-62
2021/05/01 00:01:25;;;;;;;98.97;62.00;;;;;;;;;;2103706;28;20166;-59
2021/05/01 00:02:26;;;;;;;105.70;63.33;;;;;;;;;;2092395;28;20733;-60
2021/05/01 00:03:26;;;;;;;103.60;61.57;;;;;;;;;;2094725;28;20171;-61
2021/05/01 00:04:26;;;;;;;102.70;61.77;;;;;;;;;;2101912;28;20174;-58
2021/05/01 00:05:26;;;;;;;104.77;61.87;;;;;;;;;;2104247;28;20201;-59
2021/05/01 00:06:27;;;;;;;102.03;63.00;;;;;;;;;;2100786;28;20209;-58
2021/05/01 00:07:27;;;;;;;112.13;65.50;;;;;;;;;;2101157;28;20170;-63
2021/05/01 00:08:29;;;;;;;105.67;65.77;;;;;;;;;;2101455;28;20163;-63
2021/05/01 00:09:29;;;;;;;119.03;68.20;;;;;;;;;;2090229;28;20676;-61
2021/05/01 00:10:30;;;;;;;113.57;66.87;;;;;;;;;;2096181;28;20178;-62
2021/05/01 00:11:30;;;;;;;109.83;65.37;;;;;;;;;;2092464;28;20299;-60
2021/05/01 00:12:30;;;;;;;105.93;63.23;;;;;;;;;;2095494;28;20250;-58
2021/05/01 00:13:31;;;;;;;110.50;65.63;;;;;;;;;;2100804;28;20178;-61
2021/05/01 00:14:32;;;;;;;102.57;63.43;;;;;;;;;;2098881;28;20202;-63
2021/05/01 00:15:32;;;;;;;105.23;63.00;;;;;;;;;;2104846;28;20190;-62
2021/05/01 00:16:32;;;;;;;100.17;59.93;;;;;;;;;;2090913;28;20259;-61
2021/05/01 00:17:33;;;;;;;102.37;59.60;;;;;;;;;;2093792;28;20615;-61
2021/05/01 00:18:33;;;;;;;101.43;60.93;;;;;;;;;;2104591;28;20739;-59
2021/05/01 00:19:33;;;;;;;97.20;60.13;;;;;;;;;;2100653;28;20563;-59
2021/05/01 00:20:34;;;;;;;102.50;60.30;;;;;;;;;;2105495;28;20532;-57
2021/05/01 00:21:34;;;;;;;93.23;58.57;;;;;;;;;;2100732;28;20179;-61
2021/05/01 00:22:34;;;;;;;98.50;59.67;;;;;;;;;;2102143;28;20174;-61
2021/05/01 00:23:35;;;;;;;93.50;58.03;;;;;;;;;;2104367;28;20178;-62
2021/05/01 00:24:35;;;;;;;106.30;62.20;;;;;;;;;;2101086;28;20248;-60
2021/05/01 00:25:35;;;;;;;105.50;61.00;;;;;;;;;;2104819;28;20185;-62
2021/05/01 00:26:36;;;;;;;100.53;59.33;;;;;;;;;;2105358;28;20185;-61
2021/05/01 00:27:36;;;;;;;104.10;61.43;;;;;;;;;;2105885;28;20243;-60
2021/05/01 00:28:37;;;;;;;94.63;58.63;;;;;;;;;;2100753;28;20712;-59
2021/05/01 00:29:37;;;;;;;99.73;62.20;;;;;;;;;;2091050;28;20173;-60
2021/05/01 00:30:38;;;;;;;113.63;65.10;;;;;;;;;;2103261;28;20216;-60
2021/05/01 00:31:38;;;;;;;113.27;67.00;;;;;;;;;;2105963;28;20259;-61
2021/05/01 00:32:39;;;;;;;116.07;66.67;;;;;;;;;;2098474;28;21201;-60
2021/05/01 00:33:39;;;;;;;107.30;62.03;;;;;;;;;;2104733;28;20175;-59
2021/05/01 00:34:40;;;;;;;119.27;65.10;;;;;;;;;;2104409;28;20198;-62
2021/05/01 00:35:42;;;;;;;113.00;62.10;;;;;;;;;;2098928;28;20524;-55
2021/05/01 00:36:43;;;;;;;109.80;62.37;;;;;;;;;;2094976;28;20175;-62
2021/05/01 00:37:43;;;;;;;104.53;63.20;;;;;;;;;;2097296;28;20214;-61
2021/05/01 00:38:44;;;;;;;104.27;60.20;;;;;;;;;;2101937;28;20176;-62
2021/05/01 00:39:44;;;;;;;103.57;58.93;;;;;;;;;;2106650;28;20194;-59
2021/05/01 00:40:45;;;;;;;105.17;60.47;;;;;;;;;;2099636;28;20834;-61
2021/05/01 00:41:46;;;;;;;96.07;57.73;;;;;;;;;;2105223;28;20190;-61
2021/05/01 00:42:46;;;;;;;99.90;59.40;;;;;;;;;;2094232;28;20180;-56
2021/05/01 00:43:46;;;;;;;98.60;56.53;;;;;;;;;;2106105;28;20671;-61
2021/05/01 00:44:47;;;;;;;94.97;56.20;;;;;;;;;;2098382;28;20195;-61
2021/05/01 00:45:47;;;;;;;104.27;58.87;;;;;;;;;;2097507;28;20209;-60
2021/05/01 00:46:47;;;;;;;101.73;61.67;;;;;;;;;;2089469;28;20635;-57
2021/05/01 00:47:48;;;;;;;108.67;64.27;;;;;;;;;;2091373;28;20180;-60
2021/05/01 00:48:48;;;;;;;100.63;58.70;;;;;;;;;;2091490;28;20179;-63
2021/05/01 00:49:48;;;;;;;94.90;56.47;;;;;;;;;;2097319;28;20266;-62
2021/05/01 00:50:48;;;;;;;96.30;54.40;;;;;;;;;;2092834;28;20211;-61
2021/05/01 00:51:49;;;;;;;92.30;56.00;;;;;;;;;;2106692;28;20170;-61
2021/05/01 00:52:49;;;;;;;90.67;55.20;;;;;;;;;;2081407;28;20204;-61
2021/05/01 00:53:50;;;;;;;98.30;58.33;;;;;;;;;;2081246;28;20199;-62
2021/05/01 00:54:50;;;;;;;97.50;58.83;;;;;;;;;;2091486;28;20544;-62
2021/05/01 00:55:50;;;;;;;93.40;57.57;;;;;;;;;;2105827;28;20541;-61
2021/05/01 00:56:51;;;;;;;98.03;56.97;;;;;;;;;;2099515;28;20175;-63
2021/05/01 00:57:51;;;;;;;96.67;57.17;;;;;;;;;;2106096;28;20190;-61
2021/05/01 00:58:51;;;;;;;91.60;54.80;;;;;;;;;;2098450;28;20235;-61
2021/05/01 00:59:51;;;;;;;95.83;55.40;;;;;;;;;;2106287;28;20272;-60
2021/05/01 01:02:01;;;;;;;90.80;54.90;;;;;;;;;;2098214;28;20175;-61
2021/05/01 01:03:01;;;;;;;95.30;55.90;;;;;;;;;;2090360;28;20718;-61
2021/05/01 01:04:02;;;;;;;95.93;56.93;;;;;;;;;;2092039;28;20278;-61
2021/05/01 01:05:02;;;;;;;97.57;54.90;;;;;;;;;;2100340;28;20595;-59
2021/05/01 01:06:03;;;;;;;99.83;56.80;;;;;;;;;;2102633;28;21047;-61
2021/05/01 01:07:03;;;;;;;101.03;57.83;;;;;;;;;;2098029;28;20592;-62
2021/05/01 01:08:04;;;;;;;103.93;59.83;;;;;;;;;;2098294;28;20206;-61
2021/05/01 01:09:04;;;;;;;107.83;59.77;;;;;;;;;;2098215;28;20175;-61
2021/05/01 01:10:05;;;;;;;102.30;59.70;;;;;;;;;;2098909;28;20202;-62
2021/05/01 01:11:05;;;;;;;107.17;61.73;;;;;;;;;;2104252;28;20290;-63
2021/05/01 01:12:06;;;;;;;114.40;63.83;;;;;;;;;;2100177;28;20250;-60
2021/05/01 01:13:07;;;;;;;114.57;65.57;;;;;;;;;;2093543;28;20203;-61
2021/05/01 01:14:08;;;;;;;127.23;71.80;;;;;;;;;;2085973;28;20223;-59
2021/05/01 01:15:08;;;;;;;135.47;72.10;;;;;;;;;;2084183;28;20207;-62
2021/05/01 01:16:08;;;;;;;144.70;76.40;;;;;;;;;;2082198;28;20207;-59
2021/05/01 01:17:09;;;;;;;146.20;72.53;;;;;;;;;;2092813;28;20233;-60
2021/05/01 01:18:10;;;;;;;145.50;79.17;;;;;;;;;;2100895;28;20291;-63
2021/05/01 01:19:10;;;;;;;158.57;77.63;;;;;;;;;;2104545;28;20213;-61
2021/05/01 01:20:11;;;;;;;152.40;81.33;;;;;;;;;;2100507;28;20170;-57
2021/05/01 01:21:11;;;;;;;160.50;79.30;;;;;;;;;;2103188;28;20769;-54
2021/05/01 01:22:12;;;;;;;149.87;76.67;;;;;;;;;;2094059;28;20206;-61
2021/05/01 01:23:13;;;;;;;147.30;76.27;;;;;;;;;;2098471;28;20689;-60
2021/05/01 01:24:13;;;;;;;143.53;76.37;;;;;;;;;;2097357;28;20182;-58
2021/05/01 01:25:13;;;;;;;139.87;71.60;;;;;;;;;;2101315;28;20181;-61
2021/05/01 01:26:14;;;;;;;149.70;79.73;;;;;;;;;;2092210;28;20207;-62
2021/05/01 01:27:14;;;;;;;154.70;80.17;;;;;;;;;;2093949;28;20176;-63
2021/05/01 01:28:15;;;;;;;151.73;75.57;;;;;;;;;;2102057;28;20181;-62
2021/05/01 01:29:15;;;;;;;153.90;79.37;;;;;;;;;;2102642;28;20525;-61
2021/05/01 01:30:17;;;;;;;149.33;76.20;;;;;;;;;;2102123;28;20169;-59
2021/05/01 01:31:17;;;;;;;143.00;74.60;;;;;;;;;;2103993;28;20274;-60
2021/05/01 01:32:17;;;;;;;152.07;75.10;;;;;;;;;;2092799;28;20175;-60
2021/05/01 01:33:17;;;;;;;165.00;81.90;;;;;;;;;;2091707;28;20253;-62
2021/05/01 01:34:18;;;;;;;174.70;86.60;;;;;;;;;;2102602;28;20175;-61
2021/05/01 01:35:18;;;;;;;159.23;84.07;;;;;;;;;;2098050;28;20374;-61
2021/05/01 01:36:18;;;;;;;159.33;81.47;;;;;;;;;;2101232;28;20175;-61
2021/05/01 01:37:19;;;;;;;170.00;83.90;;;;;;;;;;2098438;28;20166;-61
2021/05/01 01:38:19;;;;;;;160.77;85.23;;;;;;;;;;2100392;28;20205;-64
2021/05/01 01:39:20;;;;;;;158.03;83.13;;;;;;;;;;2098359;28;20179;-60
2021/05/01 01:40:21;;;;;;;167.07;83.77;;;;;;;;;;2098416;28;20174;-60
2021/05/01 01:41:21;;;;;;;161.27;78.50;;;;;;;;;;2097704;28;20179;-59
2021/05/01 01:42:21;;;;;;;160.23;79.27;;;;;;;;;;2098396;28;20185;-62
2021/05/01 01:43:21;;;;;;;163.60;82.77;;;;;;;;;;2088242;28;20172;-62
2021/05/01 01:44:22;;;;;;;158.83;80.47;;;;;;;;;;2080746;28;20594;-61
2021/05/01 01:45:23;;;;;;;148.67;80.00;;;;;;;;;;2093972;28;20220;-61
2021/05/01 01:46:24;;;;;;;154.23;77.60;;;;;;;;;;2098620;28;20190;-62
2021/05/01 01:47:24;;;;;;;146.57;76.03;;;;;;;;;;2090927;28;20175;-61
2021/05/01 01:48:24;;;;;;;139.73;71.83;;;;;;;;;;2084628;28;20169;-64
2021/05/01 01:49:24;;;;;;;129.20;69.33;;;;;;;;;;2091349;28;20558;-59
2021/05/01 01:50:25;;;;;;;133.03;70.27;;;;;;;;;;2102754;28;20170;-59
2021/05/01 01:51:26;;;;;;;117.97;64.17;;;;;;;;;;2100917;28;20654;-62
2021/05/01 01:52:26;;;;;;;118.07;64.67;;;;;;;;;;2103733;28;20174;-62
2021/05/01 01:53:26;;;;;;;116.63;65.53;;;;;;;;;;2105423;28;20202;-62
2021/05/01 01:54:26;;;;;;;118.37;63.87;;;;;;;;;;2101414;28;20169;-61
2021/05/01 01:55:27;;;;;;;108.67;64.83;;;;;;;;;;2097499;28;20874;-63
2021/05/01 01:56:27;;;;;;;106.33;61.20;;;;;;;;;;2097658;28;20194;-61
2021/05/01 01:57:27;;;;;;;105.93;61.87;;;;;;;;;;2101613;28;20180;-62
2021/05/01 01:58:28;;;;;;;103.50;61.10;;;;;;;;;;2100775;28;20163;-61
2021/05/01 01:59:29;;;;;;;99.83;58.57;;;;;;;;;;2088641;28;20318;-59
2021/05/01 02:00:29;;;;;;;98.87;56.60;;;;;;;;;;2091973;28;20202;-63
2021/05/01 02:01:30;;;;;;;95.90;55.07;;;;;;;;;;2089174;28;20180;-60
2021/05/01 02:02:30;;;;;;;93.77;55.40;;;;;;;;;;2094536;28;20194;-63
2021/05/01 02:03:31;;;;;;;93.37;57.00;;;;;;;;;;2096453;28;20183;-61
2021/05/01 02:05:49;;;;;;;79.73;51.93;;;;;;;;;;2070796;28;20220;-59
2021/05/01 02:06:49;;;;;;;83.73;53.10;;;;;;;;;;2091180;28;20258;-60
2021/05/01 02:07:49;;;;;;;87.57;53.13;;;;;;;;;;2091378;28;20655;-60
2021/05/01 02:08:50;;;;;;;83.70;51.80;;;;;;;;;;2082331;28;20180;-53
2021/05/01 02:09:50;;;;;;;84.33;53.23;;;;;;;;;;2079541;28;20733;-55
2021/05/01 02:10:50;;;;;;;86.10;52.13;;;;;;;;;;2079913;28;20169;-55
2021/05/01 02:11:50;;;;;;;89.07;54.43;;;;;;;;;;2076821;28;20180;-57
2021/05/01 02:12:51;;;;;;;85.60;53.50;;;;;;;;;;2080291;28;20240;-55
2021/05/01 02:13:51;;;;;;;81.65;51.03;;;;;;;;;;2071721;28;20252;-59
2021/05/01 02:14:51;;;;;;;82.13;52.45;;;;;;;;;;2072347;28;20684;-57
2021/05/01 02:15:52;;;;;;;80.15;51.78;;;;;;;;;;2079582;28;20161;-58
2021/05/01 02:16:52;;;;;;;83.30;51.83;;;;;;;;;;2089743;28;20217;-56
2021/05/01 02:17:54;;;;;;;80.47;51.05;;;;;;;;;;2089242;28;20156;-57
2021/05/01 02:18:54;;;;;;;81.30;51.22;;;;;;;;;;2089667;28;20532;-57
2021/05/01 02:19:54;;;;;;;79.40;49.50;;;;;;;;;;2089180;28;20230;-57
2021/05/01 02:20:54;;;;;;;80.27;50.63;;;;;;;;;;2089376;28;20160;-57
2021/05/01 02:21:55;;;;;;;86.93;49.88;;;;;;;;;;2088679;28;20191;-57
2021/05/01 02:22:57;;;;;;;81.53;52.07;;;;;;;;;;2089508;28;20332;-61
2021/05/01 02:23:57;;;;;;;81.50;51.00;;;;;;;;;;2089062;28;20231;-58
2021/05/01 02:24:58;;;;;;;83.40;52.07;;;;;;;;;;2089799;28;20726;-58
2021/05/01 02:25:58;;;;;;;83.00;51.93;;;;;;;;;;2087300;28;20217;-58
2021/05/01 02:26:58;;;;;;;83.37;52.70;;;;;;;;;;2089557;28;20163;-57
2021/05/01 02:27:59;;;;;;;78.20;50.87;;;;;;;;;;2086586;28;20218;-59
2021/05/01 02:28:59;;;;;;;80.50;51.83;;;;;;;;;;2089412;28;20190;-60
2021/05/01 02:29:59;;;;;;;75.20;50.47;;;;;;;;;;2088422;28;20183;-59
2021/05/01 02:31:00;;;;;;;73.83;49.47;;;;;;;;;;2081144;28;20660;-58
2021/05/01 02:32:00;;;;;;;68.90;48.10;;;;;;;;;;2080147;28;20184;-60
2021/05/01 02:33:00;;;;;;;69.90;47.30;;;;;;;;;;2085532;28;20219;-61
2021/05/01 02:34:00;;;;;;;74.82;49.20;;;;;;;;;;2084994;28;20184;-60
2021/05/01 02:35:01;;;;;;;76.37;49.77;;;;;;;;;;2088733;28;20286;-54
2021/05/01 02:36:01;;;;;;;78.85;51.78;;;;;;;;;;2089064;28;20188;-58
2021/05/01 02:37:02;;;;;;;75.53;50.17;;;;;;;;;;2089001;28;20176;-57
2021/05/01 02:38:02;;;;;;;79.50;50.23;;;;;;;;;;2075476;28;20635;-55
2021/05/01 02:39:04;;;;;;;78.20;50.00;;;;;;;;;;2080722;28;20184;-58
2021/05/01 02:40:05;;;;;;;83.43;50.47;;;;;;;;;;2088834;28;20194;-58
2021/05/01 02:41:05;;;;;;;74.83;48.33;;;;;;;;;;2089635;28;20167;-57
2021/05/01 02:42:06;;;;;;;80.93;51.03;;;;;;;;;;2088809;28;20691;-58
2021/05/01 02:43:08;;;;;;;76.43;50.20;;;;;;;;;;2089030;28;20180;-52
2021/05/01 02:44:08;;;;;;;72.35;49.17;;;;;;;;;;2088734;28;20206;-59
2021/05/01 02:45:10;;;;;;;72.88;49.05;;;;;;;;;;2079913;28;20699;-59
2021/05/01 02:46:10;;;;;;;79.83;50.47;;;;;;;;;;2080939;28;20270;-57
2021/05/01 02:47:10;;;;;;;74.13;50.80;;;;;;;;;;2088378;28;20214;-58
2021/05/01 02:48:11;;;;;;;76.50;48.97;;;;;;;;;;2083302;28;20167;-58
2021/05/01 02:49:11;;;;;;;81.00;50.90;;;;;;;;;;2087411;28;20175;-60
2021/05/01 02:50:12;;;;;;;77.38;49.67;;;;;;;;;;2083718;28;20226;-58
2021/05/01 02:51:13;;;;;;;77.43;50.22;;;;;;;;;;2087277;28;20278;-58
2021/05/01 02:52:13;;;;;;;72.80;48.50;;;;;;;;;;2084580;28;20183;-57
2021/05/01 02:53:13;;;;;;;78.10;49.25;;;;;;;;;;2088277;28;20634;-60
2021/05/01 02:54:13;;;;;;;75.57;48.38;;;;;;;;;;2088831;28;20218;-61
2021/05/01 02:55:14;;;;;;;73.03;49.95;;;;;;;;;;2088611;28;20195;-59
2021/05/01 02:56:15;;;;;;;78.30;48.87;;;;;;;;;;2089698;28;20221;-58
2021/05/01 02:57:15;;;;;;;79.63;50.83;;;;;;;;;;2080270;28;20718;-60
2021/05/01 02:58:16;;;;;;;74.53;47.20;;;;;;;;;;2080986;28;20616;-57
2021/05/01 02:59:16;;;;;;;74.80;48.87;;;;;;;;;;2089313;28;20198;-58
2021/05/01 03:00:17;;;;;;;71.50;47.60;;;;;;;;;;2089155;28;20171;-54
2021/05/01 03:01:17;;;;;;;73.90;48.97;;;;;;;;;;2088838;28;20183;-57
2021/05/01 03:02:18;;;;;;;73.07;46.97;;;;;;;;;;2076189;28;20184;-58
2021/05/01 03:03:18;;;;;;;73.90;47.30;;;;;;;;;;2078036;28;20230;-58
2021/05/01 03:04:18;;;;;;;74.17;49.13;;;;;;;;;;2089566;28;20180;-58
2021/05/01 03:05:18;;;;;;;73.50;48.37;;;;;;;;;;2089334;28;20667;-59
2021/05/01 03:06:19;;;;;;;72.47;48.50;;;;;;;;;;2089649;28;20679;-59
2021/05/01 03:07:19;;;;;;;75.43;49.13;;;;;;;;;;2089256;28;20289;-58
2021/05/01 03:08:19;;;;;;;74.57;49.85;;;;;;;;;;2080952;28;20214;-56
2021/05/01 03:09:20;;;;;;;75.70;49.65;;;;;;;;;;2081016;28;20188;-57
2021/05/01 03:10:21;;;;;;;72.40;47.28;;;;;;;;;;2084673;28;20187;-55
2021/05/01 03:11:21;;;;;;;71.43;46.75;;;;;;;;;;2088733;28;20199;-57
2021/05/01 03:12:22;;;;;;;71.43;46.87;;;;;;;;;;2089244;28;20175;-54
2021/05/01 03:13:22;;;;;;;77.80;48.92;;;;;;;;;;2088862;28;20195;-59
2021/05/01 03:14:25;;;;;;;78.90;50.07;;;;;;;;;;2089218;28;20176;-56
2021/05/01 03:15:25;;;;;;;75.87;49.87;;;;;;;;;;2088937;28;20219;-59
2021/05/01 03:16:26;;;;;;;78.87;50.37;;;;;;;;;;2089546;28;20186;-56
2021/05/01 03:17:26;;;;;;;80.80;49.03;;;;;;;;;;2089141;28;20168;-56
2021/05/01 03:18:26;;;;;;;71.82;47.58;;;;;;;;;;2072443;28;20177;-55
2021/05/01 03:19:26;;;;;;;74.55;48.22;;;;;;;;;;2072549;28;20172;-55
2021/05/01 03:20:27;;;;;;;74.63;49.67;;;;;;;;;;2081482;28;20540;-54
2021/05/01 03:21:27;;;;;;;71.40;47.38;;;;;;;;;;2072567;28;20797;-56
2021/05/01 03:22:27;;;;;;;81.73;49.63;;;;;;;;;;2073086;28;20181;-61
2021/05/01 03:23:28;;;;;;;75.67;49.70;;;;;;;;;;2080073;28;20183;-56
2021/05/01 03:24:30;;;;;;;78.28;48.63;;;;;;;;;;2080672;28;20211;-58
2021/05/01 03:25:30;;;;;;;79.93;48.10;;;;;;;;;;2089334;28;20200;-59
2021/05/01 03:26:30;;;;;;;72.97;47.60;;;;;;;;;;2080639;28;20258;-60
2021/05/01 03:27:30;;;;;;;75.10;50.37;;;;;;;;;;2082335;28;20168;-55
2021/05/01 03:28:31;;;;;;;81.55;51.95;;;;;;;;;;2082254;28;20879;-56
2021/05/01 03:29:31;;;;;;;79.45;49.00;;;;;;;;;;2091310;28;20176;-59
2021/05/01 03:30:31;;;;;;;75.87;48.43;;;;;;;;;;2091967;28;20702;-61
2021/05/01 03:31:33;;;;;;;79.47;50.93;;;;;;;;;;2092491;28;20164;-61
2021/05/01 03:32:33;;;;;;;83.93;53.00;;;;;;;;;;2091142;28;20184;-59
2021/05/01 03:33:33;;;;;;;85.20;52.78;;;;;;;;;;2091464;28;20171;-61
2021/05/01 03:34:34;;;;;;;85.13;50.63;;;;;;;;;;2092456;28;20206;-60
2021/05/01 03:35:34;;;;;;;82.43;53.22;;;;;;;;;;2094074;28;20219;-60
2021/05/01 03:36:34;;;;;;;84.13;52.30;;;;;;;;;;2090666;28;20203;-57
2021/05/01 03:37:34;;;;;;;80.50;52.25;;;;;;;;;;2090405;28;20171;-58
2021/05/01 03:38:35;;;;;;;87.43;54.47;;;;;;;;;;2090041;28;20607;-58
2021/05/01 03:39:35;;;;;;;81.90;53.13;;;;;;;;;;2081612;28;20200;-58
2021/05/01 03:40:35;;;;;;;80.00;51.67;;;;;;;;;;2081395;28;20690;-55
2021/05/01 03:41:36;;;;;;;82.75;53.30;;;;;;;;;;2090596;28;20195;-60
2021/05/01 03:42:36;;;;;;;82.65;52.30;;;;;;;;;;2085063;28;20172;-55
2021/05/01 03:43:36;;;;;;;82.97;52.90;;;;;;;;;;2084708;28;20203;-60
2021/05/01 03:44:37;;;;;;;81.70;49.93;;;;;;;;;;2082945;28;20271;-57
2021/05/01 03:45:37;;;;;;;80.35;49.97;;;;;;;;;;2089615;28;20199;-56
2021/05/01 03:46:37;;;;;;;78.73;51.73;;;;;;;;;;2090948;28;20172;-58
2021/05/01 03:47:38;;;;;;;77.30;50.30;;;;;;;;;;2083641;28;20177;-57
2021/05/01 03:48:38;;;;;;;79.63;51.60;;;;;;;;;;2072509;28;20172;-58
2021/05/01 03:49:38;;;;;;;83.97;49.95;;;;;;;;;;2081387;28;20175;-58
2021/05/01 03:50:38;;;;;;;81.35;50.95;;;;;;;;;;2089934;28;20557;-59
2021/05/01 03:51:39;;;;;;;83.95;53.58;;;;;;;;;;2089578;28;20163;-58
2021/05/01 03:52:39;;;;;;;85.55;52.60;;;;;;;;;;2089454;28;20301;-57
2021/05/01 03:53:39;;;;;;;88.85;56.20;;;;;;;;;;2088482;28;20187;-59
2021/05/01 03:54:39;;;;;;;86.10;54.00;;;;;;;;;;2089467;28;20163;-58
2021/05/01 03:55:40;;;;;;;87.13;53.00;;;;;;;;;;2088552;28;20164;-58
2021/05/01 03:56:40;;;;;;;86.13;54.57;;;;;;;;;;2088881;28;20285;-58
2021/05/01 03:57:41;;;;;;;79.90;52.00;;;;;;;;;;2087663;28;20251;-57
2021/05/01 03:58:42;;;;;;;85.28;52.13;;;;;;;;;;2081001;28;20214;-55
2021/05/01 03:59:42;;;;;;;85.77;54.67;;;;;;;;;;2081489;28;20180;-58
2021/05/01 04:00:42;;;;;;;95.37;55.43;;;;;;;;;;2089889;28;20532;-59
2021/05/01 04:01:42;;;;;;;85.25;53.97;;;;;;;;;;2089701;28;20618;-56
2021/05/01 04:02:43;;;;;;;86.90;54.63;;;;;;;;;;2089803;28;20551;-58
2021/05/01 04:03:43;;;;;;;87.20;54.38;;;;;;;;;;2089328;28;20679;-58
2021/05/01 04:04:44;;;;;;;85.88;52.92;;;;;;;;;;2081971;28;20176;-57
2021/05/01 04:05:44;;;;;;;86.20;54.00;;;;;;;;;;2076634;28;20185;-58
2021/05/01 04:06:44;;;;;;;83.75;53.75;;;;;;;;;;2089546;28;20549;-58
2021/05/01 04:07:45;;;;;;;90.68;53.80;;;;;;;;;;2075941;28;20197;-59
2021/05/01 04:08:45;;;;;;;88.22;55.22;;;;;;;;;;2080722;28;20180;-60
2021/05/01 04:09:45;;;;;;;84.30;54.30;;;;;;;;;;2089761;28;20224;-59
2021/05/01 04:10:46;;;;;;;85.40;55.78;;;;;;;;;;2090799;28;20217;-55
2021/05/01 04:11:46;;;;;;;89.43;58.22;;;;;;;;;;2083680;28;20672;-58
2021/05/01 04:12:46;;;;;;;88.43;55.40;;;;;;;;;;2090344;28;20559;-56
2021/05/01 04:13:47;;;;;;;86.50;54.58;;;;;;;;;;2084587;28;20188;-61
2021/05/01 04:14:47;;;;;;;93.93;56.72;;;;;;;;;;2094761;28;20195;-60
2021/05/01 04:15:47;;;;;;;95.17;55.07;;;;;;;;;;2094305;28;20245;-60
2021/05/01 04:16:48;;;;;;;93.25;55.42;;;;;;;;;;2094199;28;20183;-58
2021/05/01 04:17:48;;;;;;;94.10;56.47;;;;;;;;;;2082572;28;20172;-58
2021/05/01 04:18:48;;;;;;;91.82;55.55;;;;;;;;;;2090193;28;20199;-59
2021/05/01 04:19:49;;;;;;;83.20;50.97;;;;;;;;;;2090518;28;20258;-59
2021/05/01 04:20:49;;;;;;;89.13;54.00;;;;;;;;;;2082929;28;20717;-60
2021/05/01 04:21:49;;;;;;;89.10;53.70;;;;;;;;;;2090194;28;20183;-56
2021/05/01 04:22:50;;;;;;;84.73;50.80;;;;;;;;;;2089269;28;20259;-59
2021/05/01 04:23:50;;;;;;;90.63;53.73;;;;;;;;;;2090495;28;20304;-59
2021/05/01 04:24:51;;;;;;;95.60;53.90;;;;;;;;;;2089120;28;20262;-58
2021/05/01 04:25:51;;;;;;;91.37;53.03;;;;;;;;;;2090304;28;20167;-59
2021/05/01 04:26:52;;;;;;;95.15;51.33;;;;;;;;;;2081403;28;20757;-59
2021/05/01 04:27:52;;;;;;;94.27;55.57;;;;;;;;;;2073798;28;20592;-60
2021/05/01 04:28:53;;;;;;;90.80;52.60;;;;;;;;;;2081686;28;20211;-59
2021/05/01 04:29:53;;;;;;;91.75;53.67;;;;;;;;;;2091166;28;20206;-58
2021/05/01 04:30:54;;;;;;;90.80;56.00;;;;;;;;;;2086953;28;20184;-57
2021/05/01 04:31:54;;;;;;;97.80;57.97;;;;;;;;;;2089949;28;20168;-60
2021/05/01 04:32:54;;;;;;;96.73;58.03;;;;;;;;;;2089847;28;20211;-58
2021/05/01 04:33:54;;;;;;;93.73;57.03;;;;;;;;;;2090141;28;20541;-59
2021/05/01 04:34:55;;;;;;;95.27;57.07;;;;;;;;;;2090038;28;20188;-55
2021/05/01 04:35:55;;;;;;;92.13;55.37;;;;;;;;;;2090544;28;20168;-56
2021/05/01 04:36:56;;;;;;;102.93;55.23;;;;;;;;;;2080917;28;20175;-58
2021/05/01 04:37:56;;;;;;;95.28;56.95;;;;;;;;;;2069671;28;20183;-57
2021/05/01 04:38:56;;;;;;;91.73;54.30;;;;;;;;;;2080201;28;20172;-58
2021/05/01 04:39:57;;;;;;;94.35;56.03;;;;;;;;;;2090416;28;20195;-58
2021/05/01 04:40:57;;;;;;;95.87;56.03;;;;;;;;;;2089812;28;20191;-57
2021/05/01 04:41:58;;;;;;;89.47;54.90;;;;;;;;;;2089755;28;20172;-57
2021/05/01 04:43:02;;;;;;;88.97;53.80;;;;;;;;;;2089826;28;20194;-57
2021/05/01 04:44:02;;;;;;;94.20;54.67;;;;;;;;;;2089426;28;20184;-57
2021/05/01 04:45:03;;;;;;;92.60;55.93;;;;;;;;;;2083544;28;20204;-57
2021/05/01 04:46:03;;;;;;;90.28;54.20;;;;;;;;;;2084304;28;20184;-60
2021/05/01 04:47:04;;;;;;;88.75;56.05;;;;;;;;;;2084323;28;20190;-59
2021/05/01 04:48:05;;;;;;;94.53;56.43;;;;;;;;;;2090394;28;20175;-58
2021/05/01 04:49:05;;;;;;;91.10;56.33;;;;;;;;;;2084428;28;20211;-56
2021/05/01 04:50:06;;;;;;;98.80;56.05;;;;;;;;;;2081536;28;20172;-58
2021/05/01 04:51:06;;;;;;;94.20;56.00;;;;;;;;;;2081643;28;20184;-58
2021/05/01 04:52:06;;;;;;;93.73;54.50;;;;;;;;;;2088687;28;20226;-56
2021/05/01 04:53:06;;;;;;;90.90;55.63;;;;;;;;;;2083285;28;20934;-56
2021/05/01 04:54:07;;;;;;;82.87;52.67;;;;;;;;;;2079183;28;20271;-56
2021/05/01 04:55:13;;;;;;;93.03;56.13;;;;;;;;;;2075471;28;20195;-59
2021/05/01 04:56:13;;;;;;;90.88;56.42;;;;;;;;;;2089996;28;20172;-61
2021/05/01 04:57:13;;;;;;;91.07;55.90;;;;;;;;;;2089636;28;20176;-58
2021/05/01 04:58:14;;;;;;;88.27;53.57;;;;;;;;;;2089737;28;20267;-57
2021/05/01 04:59:14;;;;;;;93.63;55.93;;;;;;;;;;2090514;28;20199;-58
2021/05/01 05:00:17;;;;;;;85.10;52.92;;;;;;;;;;2088833;28;20169;-55
2021/05/01 05:01:17;;;;;;;87.03;53.60;;;;;;;;;;2081468;28;20182;-58
2021/05/01 05:02:18;;;;;;;83.93;52.92;;;;;;;;;;2078394;28;20188;-57
2021/05/01 05:03:18;;;;;;;90.30;55.00;;;;;;;;;;2088036;28;20167;-57
2021/05/01 05:04:18;;;;;;;86.90;55.13;;;;;;;;;;2089422;28;20211;-57
2021/05/01 05:05:19;;;;;;;87.03;54.72;;;;;;;;;;2089683;28;20210;-59
2021/05/01 05:06:19;;;;;;;86.50;53.40;;;;;;;;;;2070878;28;20169;-54
2021/05/01 05:07:20;;;;;;;89.88;54.92;;;;;;;;;;2072429;28;20181;-59
2021/05/01 05:08:20;;;;;;;91.10;55.63;;;;;;;;;;2086250;28;20636;-58
2021/05/01 05:09:20;;;;;;;82.50;53.33;;;;;;;;;;2090565;28;20278;-57
2021/05/01 05:10:20;;;;;;;90.30;54.22;;;;;;;;;;2087822;28;20668;-57
2021/05/01 05:11:21;;;;;;;85.87;53.47;;;;;;;;;;2090366;28;20274;-60
2021/05/01 05:12:21;;;;;;;86.87;54.23;;;;;;;;;;2079407;28;20782;-59
2021/05/01 05:13:22;;;;;;;84.90;54.53;;;;;;;;;;2080756;28;20622;-58
2021/05/01 05:14:22;;;;;;;81.45;51.50;;;;;;;;;;2089125;28;20172;-58
2021/05/01 05:15:23;;;;;;;86.33;52.83;;;;;;;;;;2089099;28;20199;-55
2021/05/01 05:16:23;;;;;;;84.75;53.42;;;;;;;;;;2086532;28;20170;-58
2021/05/01 05:17:23;;;;;;;91.13;53.80;;;;;;;;;;2088614;28;20254;-55
2021/05/01 05:18:24;;;;;;;84.37;52.33;;;;;;;;;;2089951;28;20187;-54
2021/05/01 05:19:24;;;;;;;84.33;53.30;;;;;;;;;;2089934;28;20234;-60
2021/05/01 05:20:24;;;;;;;82.80;52.90;;;;;;;;;;2090125;28;20179;-59
2021/05/01 05:21:24;;;;;;;84.60;54.10;;;;;;;;;;2088608;28;20214;-60
2021/05/01 05:22:25;;;;;;;79.78;50.58;;;;;;;;;;2086925;28;20183;-57
2021/05/01 05:23:25;;;;;;;83.67;51.00;;;;;;;;;;2089258;28;20172;-59
2021/05/01 05:24:26;;;;;;;81.30;52.05;;;;;;;;;;2089993;28;20650;-59
2021/05/01 05:25:26;;;;;;;75.82;48.20;;;;;;;;;;2089215;28;20214;-56
2021/05/01 05:26:26;;;;;;;81.70;49.92;;;;;;;;;;2080556;28;20172;-60
2021/05/01 05:27:26;;;;;;;77.57;49.65;;;;;;;;;;2081213;28;20183;-59
2021/05/01 05:28:27;;;;;;;78.60;51.03;;;;;;;;;;2081600;28;20204;-58
2021/05/01 05:29:27;;;;;;;80.90;50.78;;;;;;;;;;2081274;28;20202;-59
2021/05/01 05:30:27;;;;;;;78.93;52.45;;;;;;;;;;2080408;28;20277;-57
2021/05/01 05:31:27;;;;;;;79.17;50.07;;;;;;;;;;2080773;28;20692;-59
2021/05/01 05:32:28;;;;;;;83.60;53.17;;;;;;;;;;2073012;28;20559;-59
2021/05/01 05:33:29;;;;;;;80.18;51.42;;;;;;;;;;2075496;28;20231;-58
2021/05/01 05:34:30;;;;;;;83.80;51.47;;;;;;;;;;2090105;28;20168;-61
2021/05/01 05:35:30;;;;;;;84.30;53.42;;;;;;;;;;2072553;28;20762;-59
2021/05/01 05:36:31;;;;;;;75.90;50.67;;;;;;;;;;2073139;28;20238;-60
2021/05/01 05:37:31;;;;;;;88.97;54.03;;;;;;;;;;2089041;28;20656;-59
2021/05/01 05:38:31;;;;;;;83.78;53.22;;;;;;;;;;2081395;28;20176;-60
2021/05/01 05:39:31;;;;;;;85.50;53.35;;;;;;;;;;2075210;28;20168;-59
2021/05/01 05:40:33;;;;;;;84.03;52.80;;;;;;;;;;2088231;28;20190;-59
2021/05/01 05:41:33;;;;;;;85.15;53.72;;;;;;;;;;2087854;28;20167;-59
2021/05/01 05:42:34;;;;;;;87.03;55.17;;;;;;;;;;2072449;28;20230;-61
2021/05/01 05:43:34;;;;;;;93.95;56.10;;;;;;;;;;2077983;28;20186;-60
2021/05/01 05:44:35;;;;;;;88.70;55.10;;;;;;;;;;2088124;28;20172;-60
2021/05/01 05:45:36;;;;;;;83.75;55.22;;;;;;;;;;2080570;28;20394;-60
2021/05/01 05:46:37;;;;;;;91.30;55.83;;;;;;;;;;2075490;28;20180;-60
2021/05/01 05:47:37;;;;;;;84.35;52.28;;;;;;;;;;2087696;28;20254;-59
2021/05/01 05:48:38;;;;;;;91.75;57.63;;;;;;;;;;2089891;28;20186;-58
2021/05/01 05:49:38;;;;;;;88.50;55.05;;;;;;;;;;2088257;28;20178;-60
2021/05/01 05:50:38;;;;;;;86.93;54.90;;;;;;;;;;2089891;28;20171;-59
2021/05/01 05:51:39;;;;;;;77.27;50.20;;;;;;;;;;2073707;28;20654;-57
2021/05/01 05:52:39;;;;;;;81.45;53.13;;;;;;;;;;2079183;28;20175;-60